sensor_id;sensor_type;location;lat;lon;timestamp;P1;durP1;ratioP1;P2;durP2;ratioP2
19329;SDS011;9799;48.214;16.388;2023-10-08T00:03:09;5.40;;;3.67;;
19329;SDS011;9799;48.214;16.388;2023-10-08T00:06:32;12.60;;;4.25;;
19329;SDS011;9799;48.214;16.388;2023-10-08T00:09:53;6.50;;;4.22;;
19329;SDS011;9799;48.214;16.388;2023-10-08T00:13:14;6.07;;;3.55;;
19329;SDS011;9799;48.214;16.388;2023-10-08T00:16:36;5.70;;;3.45;;
19329;SDS011;9799;48.214;16.388;2023-10-08T00:19:59;5.57;;;3.67;;
19329;SDS011;9799;48.214;16.388;2023-10-08T00:23:22;4.78;;;3.75;;
19329;SDS011;9799;48.214;16.388;2023-10-08T00:26:45;7.30;;;3.83;;
19329;SDS011;9799;48.214;16.388;2023-10-08T00:30:07;8.18;;;3.58;;
19329;SDS011;9799;48.214;16.388;2023-10-08T00:33:36;5.60;;;3.85;;
19329;SDS011;9799;48.214;16.388;2023-10-08T00:36:58;5.65;;;4.30;;
19329;SDS011;9799;48.214;16.388;2023-10-08T00:40:21;7.22;;;3.53;;
19329;SDS011;9799;48.214;16.388;2023-10-08T00:43:42;21.02;;;4.78;;
19329;SDS011;9799;48.214;16.388;2023-10-08T00:47:07;5.22;;;3.38;;
19329;SDS011;9799;48.214;16.388;2023-10-08T00:50:31;11.25;;;4.28;;
19329;SDS011;9799;48.214;16.388;2023-10-08T00:54:02;5.03;;;3.17;;
19329;SDS011;9799;48.214;16.388;2023-10-08T00:57:29;8.60;;;4.55;;
19329;SDS011;9799;48.214;16.388;2023-10-08T01:00:55;8.50;;;3.60;;
19329;SDS011;9799;48.214;16.388;2023-10-08T01:04:20;4.93;;;3.25;;
19329;SDS011;9799;48.214;16.388;2023-10-08T01:07:45;7.18;;;3.83;;
19329;SDS011;9799;48.214;16.388;2023-10-08T01:11:16;6.65;;;3.78;;
19329;SDS011;9799;48.214;16.388;2023-10-08T01:14:40;6.60;;;3.47;;
19329;SDS011;9799;48.214;16.388;2023-10-08T01:18:03;6.40;;;3.88;;
19329;SDS011;9799;48.214;16.388;2023-10-08T01:21:28;4.88;;;3.08;;
19329;SDS011;9799;48.214;16.388;2023-10-08T01:24:55;11.98;;;4.47;;
19329;SDS011;9799;48.214;16.388;2023-10-08T01:28:20;5.20;;;3.72;;
19329;SDS011;9799;48.214;16.388;2023-10-08T01:31:48;4.85;;;3.53;;
19329;SDS011;9799;48.214;16.388;2023-10-08T01:35:12;8.93;;;4.00;;
19329;SDS011;9799;48.214;16.388;2023-10-08T01:38:42;6.68;;;4.07;;
19329;SDS011;9799;48.214;16.388;2023-10-08T01:42:09;4.93;;;3.70;;
19329;SDS011;9799;48.214;16.388;2023-10-08T01:45:36;6.13;;;3.90;;
19329;SDS011;9799;48.214;16.388;2023-10-08T01:49:00;7.35;;;4.00;;
19329;SDS011;9799;48.214;16.388;2023-10-08T01:52:28;5.43;;;3.30;;
19329;SDS011;9799;48.214;16.388;2023-10-08T01:55:49;7.90;;;3.85;;
19329;SDS011;9799;48.214;16.388;2023-10-08T01:59:14;9.88;;;4.03;;
19329;SDS011;9799;48.214;16.388;2023-10-08T02:02:36;5.07;;;3.42;;
19329;SDS011;9799;48.214;16.388;2023-10-08T02:06:00;4.80;;;3.70;;
19329;SDS011;9799;48.214;16.388;2023-10-08T02:09:25;7.13;;;4.25;;
19329;SDS011;9799;48.214;16.388;2023-10-08T02:12:46;7.25;;;4.18;;
19329;SDS011;9799;48.214;16.388;2023-10-08T02:16:08;11.43;;;3.95;;
19329;SDS011;9799;48.214;16.388;2023-10-08T02:19:30;6.00;;;3.63;;
19329;SDS011;9799;48.214;16.388;2023-10-08T02:22:51;5.85;;;4.10;;
19329;SDS011;9799;48.214;16.388;2023-10-08T02:26:13;5.78;;;3.83;;
19329;SDS011;9799;48.214;16.388;2023-10-08T02:29:35;6.97;;;4.40;;
19329;SDS011;9799;48.214;16.388;2023-10-08T02:32:57;9.30;;;3.67;;
19329;SDS011;9799;48.214;16.388;2023-10-08T02:36:18;6.03;;;3.60;;
19329;SDS011;9799;48.214;16.388;2023-10-08T02:39:40;6.18;;;4.03;;
19329;SDS011;9799;48.214;16.388;2023-10-08T02:43:01;4.70;;;3.25;;
19329;SDS011;9799;48.214;16.388;2023-10-08T02:46:25;9.98;;;4.18;;
19329;SDS011;9799;48.214;16.388;2023-10-08T02:49:50;7.93;;;4.10;;
19329;SDS011;9799;48.214;16.388;2023-10-08T02:53:12;10.07;;;4.00;;
19329;SDS011;9799;48.214;16.388;2023-10-08T02:56:37;5.40;;;3.58;;
19329;SDS011;9799;48.214;16.388;2023-10-08T02:59:58;10.05;;;4.18;;
19329;SDS011;9799;48.214;16.388;2023-10-08T03:03:23;5.10;;;3.53;;
19329;SDS011;9799;48.214;16.388;2023-10-08T03:06:49;11.32;;;4.32;;
19329;SDS011;9799;48.214;16.388;2023-10-08T03:10:11;7.75;;;3.83;;
19329;SDS011;9799;48.214;16.388;2023-10-08T03:13:38;7.07;;;4.10;;
19329;SDS011;9799;48.214;16.388;2023-10-08T03:16:59;8.57;;;4.43;;
19329;SDS011;9799;48.214;16.388;2023-10-08T03:20:27;4.72;;;3.47;;
19329;SDS011;9799;48.214;16.388;2023-10-08T03:23:50;7.18;;;3.30;;
19329;SDS011;9799;48.214;16.388;2023-10-08T03:27:16;8.40;;;3.53;;
19329;SDS011;9799;48.214;16.388;2023-10-08T03:30:39;7.20;;;3.45;;
19329;SDS011;9799;48.214;16.388;2023-10-08T03:34:10;5.53;;;3.58;;
19329;SDS011;9799;48.214;16.388;2023-10-08T03:37:33;4.63;;;3.13;;
19329;SDS011;9799;48.214;16.388;2023-10-08T03:41:02;6.35;;;3.95;;
19329;SDS011;9799;48.214;16.388;2023-10-08T03:44:28;5.10;;;3.20;;
19329;SDS011;9799;48.214;16.388;2023-10-08T03:47:49;8.23;;;3.83;;
19329;SDS011;9799;48.214;16.388;2023-10-08T03:51:23;5.45;;;4.05;;
19329;SDS011;9799;48.214;16.388;2023-10-08T03:54:47;10.38;;;3.83;;
19329;SDS011;9799;48.214;16.388;2023-10-08T03:58:11;6.93;;;4.03;;
19329;SDS011;9799;48.214;16.388;2023-10-08T04:01:48;5.78;;;3.72;;
19329;SDS011;9799;48.214;16.388;2023-10-08T04:05:13;7.32;;;4.38;;
19329;SDS011;9799;48.214;16.388;2023-10-08T04:08:46;10.80;;;4.00;;
19329;SDS011;9799;48.214;16.388;2023-10-08T04:12:17;6.93;;;4.05;;
19329;SDS011;9799;48.214;16.388;2023-10-08T04:15:40;7.18;;;4.43;;
19329;SDS011;9799;48.214;16.388;2023-10-08T04:19:01;11.25;;;4.47;;
19329;SDS011;9799;48.214;16.388;2023-10-08T04:22:23;4.68;;;3.28;;
19329;SDS011;9799;48.214;16.388;2023-10-08T04:25:44;8.85;;;3.50;;
19329;SDS011;9799;48.214;16.388;2023-10-08T04:29:06;5.80;;;3.42;;
19329;SDS011;9799;48.214;16.388;2023-10-08T04:32:30;8.40;;;3.90;;
19329;SDS011;9799;48.214;16.388;2023-10-08T04:35:54;9.75;;;4.57;;
19329;SDS011;9799;48.214;16.388;2023-10-08T04:39:15;8.73;;;4.22;;
19329;SDS011;9799;48.214;16.388;2023-10-08T04:42:41;8.63;;;3.67;;
19329;SDS011;9799;48.214;16.388;2023-10-08T04:46:04;10.07;;;3.65;;
19329;SDS011;9799;48.214;16.388;2023-10-08T04:49:39;5.13;;;3.47;;
19329;SDS011;9799;48.214;16.388;2023-10-08T04:53:04;8.48;;;4.10;;
19329;SDS011;9799;48.214;16.388;2023-10-08T04:56:28;13.48;;;4.30;;
19329;SDS011;9799;48.214;16.388;2023-10-08T04:59:52;7.07;;;3.65;;
19329;SDS011;9799;48.214;16.388;2023-10-08T05:03:17;4.75;;;3.53;;
19329;SDS011;9799;48.214;16.388;2023-10-08T05:06:41;6.35;;;3.60;;
19329;SDS011;9799;48.214;16.388;2023-10-08T05:10:20;5.50;;;3.70;;
19329;SDS011;9799;48.214;16.388;2023-10-08T05:14:04;9.55;;;3.90;;
19329;SDS011;9799;48.214;16.388;2023-10-08T05:17:35;6.45;;;3.35;;
19329;SDS011;9799;48.214;16.388;2023-10-08T05:21:15;11.07;;;3.92;;
19329;SDS011;9799;48.214;16.388;2023-10-08T05:24:46;6.30;;;4.18;;
19329;SDS011;9799;48.214;16.388;2023-10-08T05:28:26;5.22;;;3.58;;
19329;SDS011;9799;48.214;16.388;2023-10-08T05:31:50;12.88;;;4.80;;
19329;SDS011;9799;48.214;16.388;2023-10-08T05:35:32;8.20;;;3.72;;
19329;SDS011;9799;48.214;16.388;2023-10-08T05:39:09;11.07;;;4.07;;
19329;SDS011;9799;48.214;16.388;2023-10-08T05:42:50;9.13;;;3.67;;
19329;SDS011;9799;48.214;16.388;2023-10-08T05:46:20;6.35;;;3.65;;
19329;SDS011;9799;48.214;16.388;2023-10-08T05:50:16;7.40;;;4.13;;
19329;SDS011;9799;48.214;16.388;2023-10-08T05:53:58;7.38;;;4.03;;
19329;SDS011;9799;48.214;16.388;2023-10-08T05:57:29;6.75;;;3.83;;
19329;SDS011;9799;48.214;16.388;2023-10-08T06:00:59;7.85;;;3.83;;
19329;SDS011;9799;48.214;16.388;2023-10-08T06:04:28;10.05;;;4.05;;
19329;SDS011;9799;48.214;16.388;2023-10-08T06:08:12;7.50;;;3.70;;
19329;SDS011;9799;48.214;16.388;2023-10-08T06:11:40;4.65;;;3.90;;
19329;SDS011;9799;48.214;16.388;2023-10-08T06:15:04;6.45;;;3.60;;
19329;SDS011;9799;48.214;16.388;2023-10-08T06:18:32;5.75;;;3.75;;
19329;SDS011;9799;48.214;16.388;2023-10-08T06:21:53;7.30;;;3.40;;
19329;SDS011;9799;48.214;16.388;2023-10-08T06:25:14;7.85;;;3.97;;
19329;SDS011;9799;48.214;16.388;2023-10-08T06:28:43;5.22;;;3.90;;
19329;SDS011;9799;48.214;16.388;2023-10-08T06:32:04;11.18;;;4.35;;
19329;SDS011;9799;48.214;16.388;2023-10-08T06:35:28;8.40;;;5.00;;
19329;SDS011;9799;48.214;16.388;2023-10-08T06:38:49;6.28;;;3.85;;
19329;SDS011;9799;48.214;16.388;2023-10-08T06:42:10;5.97;;;4.10;;
19329;SDS011;9799;48.214;16.388;2023-10-08T06:45:33;6.45;;;3.53;;
19329;SDS011;9799;48.214;16.388;2023-10-08T06:48:55;6.45;;;4.00;;
19329;SDS011;9799;48.214;16.388;2023-10-08T06:52:19;7.18;;;3.55;;
19329;SDS011;9799;48.214;16.388;2023-10-08T06:55:40;10.73;;;4.00;;
19329;SDS011;9799;48.214;16.388;2023-10-08T06:59:02;7.95;;;4.90;;
19329;SDS011;9799;48.214;16.388;2023-10-08T07:02:25;7.40;;;4.22;;
19329;SDS011;9799;48.214;16.388;2023-10-08T07:05:47;4.97;;;3.60;;
19329;SDS011;9799;48.214;16.388;2023-10-08T07:09:18;6.70;;;4.68;;
19329;SDS011;9799;48.214;16.388;2023-10-08T07:12:48;8.85;;;4.38;;
19329;SDS011;9799;48.214;16.388;2023-10-08T07:16:12;5.72;;;3.95;;
19329;SDS011;9799;48.214;16.388;2023-10-08T07:19:36;7.95;;;4.22;;
19329;SDS011;9799;48.214;16.388;2023-10-08T07:22:59;6.32;;;4.03;;
19329;SDS011;9799;48.214;16.388;2023-10-08T07:26:22;7.07;;;4.15;;
19329;SDS011;9799;48.214;16.388;2023-10-08T07:29:45;12.15;;;4.15;;
19329;SDS011;9799;48.214;16.388;2023-10-08T07:33:06;8.60;;;4.05;;
19329;SDS011;9799;48.214;16.388;2023-10-08T07:36:30;7.40;;;3.83;;
19329;SDS011;9799;48.214;16.388;2023-10-08T07:39:51;7.35;;;4.13;;
19329;SDS011;9799;48.214;16.388;2023-10-08T07:43:16;12.00;;;4.22;;
19329;SDS011;9799;48.214;16.388;2023-10-08T07:46:39;9.25;;;4.10;;
19329;SDS011;9799;48.214;16.388;2023-10-08T07:50:01;11.15;;;4.57;;
19329;SDS011;9799;48.214;16.388;2023-10-08T07:53:31;6.82;;;4.05;;
19329;SDS011;9799;48.214;16.388;2023-10-08T07:56:57;6.25;;;4.03;;
19329;SDS011;9799;48.214;16.388;2023-10-08T08:00:29;9.20;;;4.65;;
19329;SDS011;9799;48.214;16.388;2023-10-08T08:03:57;7.80;;;3.63;;
19329;SDS011;9799;48.214;16.388;2023-10-08T08:07:19;8.85;;;4.50;;
19329;SDS011;9799;48.214;16.388;2023-10-08T08:10:40;11.13;;;4.68;;
19329;SDS011;9799;48.214;16.388;2023-10-08T08:14:03;10.50;;;4.28;;
19329;SDS011;9799;48.214;16.388;2023-10-08T08:17:28;8.88;;;4.95;;
19329;SDS011;9799;48.214;16.388;2023-10-08T08:20:50;7.25;;;4.47;;
19329;SDS011;9799;48.214;16.388;2023-10-08T08:24:12;8.50;;;3.92;;
19329;SDS011;9799;48.214;16.388;2023-10-08T08:27:48;5.80;;;3.92;;
19329;SDS011;9799;48.214;16.388;2023-10-08T08:31:12;6.90;;;3.90;;
19329;SDS011;9799;48.214;16.388;2023-10-08T08:34:35;9.98;;;3.95;;
19329;SDS011;9799;48.214;16.388;2023-10-08T08:37:57;3.80;;;3.25;;
19329;SDS011;9799;48.214;16.388;2023-10-08T08:41:18;11.25;;;3.88;;
19329;SDS011;9799;48.214;16.388;2023-10-08T08:44:43;11.52;;;4.53;;
19329;SDS011;9799;48.214;16.388;2023-10-08T08:48:06;8.98;;;4.00;;
19329;SDS011;9799;48.214;16.388;2023-10-08T08:51:29;10.93;;;4.75;;
19329;SDS011;9799;48.214;16.388;2023-10-08T08:54:51;6.38;;;3.47;;
19329;SDS011;9799;48.214;16.388;2023-10-08T08:58:12;19.13;;;4.70;;
19329;SDS011;9799;48.214;16.388;2023-10-08T09:01:33;6.25;;;3.75;;
19329;SDS011;9799;48.214;16.388;2023-10-08T09:04:55;9.02;;;3.17;;
19329;SDS011;9799;48.214;16.388;2023-10-08T09:08:18;6.20;;;2.63;;
19329;SDS011;9799;48.214;16.388;2023-10-08T09:11:39;6.13;;;2.08;;
19329;SDS011;9799;48.214;16.388;2023-10-08T09:15:02;5.05;;;1.63;;
19329;SDS011;9799;48.214;16.388;2023-10-08T09:18:25;2.17;;;1.17;;
19329;SDS011;9799;48.214;16.388;2023-10-08T09:21:59;3.35;;;0.88;;
19329;SDS011;9799;48.214;16.388;2023-10-08T09:25:24;1.08;;;0.70;;
19329;SDS011;9799;48.214;16.388;2023-10-08T09:28:48;3.47;;;0.70;;
19329;SDS011;9799;48.214;16.388;2023-10-08T09:32:11;1.02;;;0.70;;
19329;SDS011;9799;48.214;16.388;2023-10-08T09:35:33;3.15;;;0.75;;
19329;SDS011;9799;48.214;16.388;2023-10-08T09:38:55;2.92;;;0.80;;
19329;SDS011;9799;48.214;16.388;2023-10-08T09:42:20;6.47;;;1.35;;
19329;SDS011;9799;48.214;16.388;2023-10-08T09:45:47;0.50;;;0.40;;
19329;SDS011;9799;48.214;16.388;2023-10-08T09:49:13;0.68;;;0.52;;
19329;SDS011;9799;48.214;16.388;2023-10-08T09:52:39;0.47;;;0.47;;
19329;SDS011;9799;48.214;16.388;2023-10-08T09:56:12;2.50;;;0.50;;
19329;SDS011;9799;48.214;16.388;2023-10-08T09:59:36;5.93;;;0.68;;
19329;SDS011;9799;48.214;16.388;2023-10-08T10:02:58;1.33;;;0.88;;
19329;SDS011;9799;48.214;16.388;2023-10-08T10:06:20;1.25;;;0.70;;
19329;SDS011;9799;48.214;16.388;2023-10-08T10:09:43;0.70;;;0.60;;
19329;SDS011;9799;48.214;16.388;2023-10-08T10:13:06;2.85;;;0.35;;
19329;SDS011;9799;48.214;16.388;2023-10-08T10:16:32;0.43;;;0.43;;
19329;SDS011;9799;48.214;16.388;2023-10-08T10:19:59;0.40;;;0.40;;
19329;SDS011;9799;48.214;16.388;2023-10-08T10:23:34;1.00;;;0.80;;
19329;SDS011;9799;48.214;16.388;2023-10-08T10:27:09;0.50;;;0.47;;
19329;SDS011;9799;48.214;16.388;2023-10-08T10:30:31;0.50;;;0.47;;
19329;SDS011;9799;48.214;16.388;2023-10-08T10:33:53;0.63;;;0.63;;
19329;SDS011;9799;48.214;16.388;2023-10-08T10:37:14;0.30;;;0.30;;
19329;SDS011;9799;48.214;16.388;2023-10-08T10:40:43;3.45;;;0.60;;
19329;SDS011;9799;48.214;16.388;2023-10-08T10:44:16;2.58;;;0.50;;
19329;SDS011;9799;48.214;16.388;2023-10-08T10:47:37;0.85;;;0.70;;
19329;SDS011;9799;48.214;16.388;2023-10-08T10:51:04;0.60;;;0.57;;
19329;SDS011;9799;48.214;16.388;2023-10-08T10:54:29;1.15;;;0.60;;
19329;SDS011;9799;48.214;16.388;2023-10-08T10:57:55;0.70;;;0.70;;
19329;SDS011;9799;48.214;16.388;2023-10-08T11:01:25;2.10;;;0.50;;
19329;SDS011;9799;48.214;16.388;2023-10-08T11:05:03;0.30;;;0.30;;
19329;SDS011;9799;48.214;16.388;2023-10-08T11:08:40;1.60;;;0.60;;
19329;SDS011;9799;48.214;16.388;2023-10-08T11:12:06;0.50;;;0.50;;
19329;SDS011;9799;48.214;16.388;2023-10-08T11:15:30;0.50;;;0.50;;
19329;SDS011;9799;48.214;16.388;2023-10-08T11:18:57;0.30;;;0.30;;
19329;SDS011;9799;48.214;16.388;2023-10-08T11:22:39;0.50;;;0.50;;
19329;SDS011;9799;48.214;16.388;2023-10-08T11:26:05;1.37;;;0.43;;
19329;SDS011;9799;48.214;16.388;2023-10-08T11:29:26;0.73;;;0.70;;
19329;SDS011;9799;48.214;16.388;2023-10-08T11:32:48;2.13;;;0.40;;
19329;SDS011;9799;48.214;16.388;2023-10-08T11:36:09;0.40;;;0.40;;
19329;SDS011;9799;48.214;16.388;2023-10-08T11:39:38;2.53;;;0.70;;
19329;SDS011;9799;48.214;16.388;2023-10-08T11:43:06;0.73;;;0.60;;
19329;SDS011;9799;48.214;16.388;2023-10-08T11:46:35;1.60;;;1.10;;
19329;SDS011;9799;48.214;16.388;2023-10-08T11:49:58;1.13;;;1.03;;
19329;SDS011;9799;48.214;16.388;2023-10-08T11:53:29;1.13;;;1.03;;
19329;SDS011;9799;48.214;16.388;2023-10-08T11:56:51;0.93;;;0.90;;
19329;SDS011;9799;48.214;16.388;2023-10-08T12:00:14;1.87;;;1.30;;
19329;SDS011;9799;48.214;16.388;2023-10-08T12:03:45;1.07;;;0.93;;
19329;SDS011;9799;48.214;16.388;2023-10-08T12:07:09;7.13;;;0.97;;
19329;SDS011;9799;48.214;16.388;2023-10-08T12:10:30;1.87;;;1.47;;
19329;SDS011;9799;48.214;16.388;2023-10-08T12:13:53;2.30;;;1.83;;
19329;SDS011;9799;48.214;16.388;2023-10-08T12:17:16;4.43;;;1.70;;
19329;SDS011;9799;48.214;16.388;2023-10-08T12:20:38;2.50;;;1.80;;
19329;SDS011;9799;48.214;16.388;2023-10-08T12:24:03;2.13;;;1.77;;
19329;SDS011;9799;48.214;16.388;2023-10-08T12:27:24;1.87;;;1.60;;
19329;SDS011;9799;48.214;16.388;2023-10-08T12:30:46;1.40;;;1.17;;
19329;SDS011;9799;48.214;16.388;2023-10-08T12:34:10;4.43;;;1.10;;
19329;SDS011;9799;48.214;16.388;2023-10-08T12:37:31;0.93;;;0.80;;
19329;SDS011;9799;48.214;16.388;2023-10-08T12:40:56;2.17;;;1.00;;
19329;SDS011;9799;48.214;16.388;2023-10-08T12:44:18;1.10;;;0.87;;
19329;SDS011;9799;48.214;16.388;2023-10-08T12:47:41;2.10;;;0.60;;
19329;SDS011;9799;48.214;16.388;2023-10-08T12:51:04;1.80;;;1.07;;
19329;SDS011;9799;48.214;16.388;2023-10-08T12:54:26;1.97;;;1.00;;
19329;SDS011;9799;48.214;16.388;2023-10-08T12:57:52;0.77;;;0.77;;
19329;SDS011;9799;48.214;16.388;2023-10-08T13:01:23;2.70;;;1.13;;
19329;SDS011;9799;48.214;16.388;2023-10-08T13:04:48;1.43;;;1.10;;
19329;SDS011;9799;48.214;16.388;2023-10-08T13:08:16;3.37;;;1.03;;
19329;SDS011;9799;48.214;16.388;2023-10-08T13:11:37;1.83;;;1.20;;
19329;SDS011;9799;48.214;16.388;2023-10-08T13:15:00;2.80;;;1.07;;
19329;SDS011;9799;48.214;16.388;2023-10-08T13:18:25;1.47;;;1.00;;
19329;SDS011;9799;48.214;16.388;2023-10-08T13:21:48;2.13;;;1.23;;
19329;SDS011;9799;48.214;16.388;2023-10-08T13:25:13;1.73;;;1.50;;
19329;SDS011;9799;48.214;16.388;2023-10-08T13:28:37;2.27;;;1.30;;
19329;SDS011;9799;48.214;16.388;2023-10-08T13:31:59;3.03;;;1.50;;
19329;SDS011;9799;48.214;16.388;2023-10-08T13:35:24;1.60;;;1.20;;
19329;SDS011;9799;48.214;16.388;2023-10-08T13:38:46;4.57;;;1.70;;
19329;SDS011;9799;48.214;16.388;2023-10-08T13:42:09;2.43;;;1.50;;
19329;SDS011;9799;48.214;16.388;2023-10-08T13:45:38;4.40;;;2.00;;
19329;SDS011;9799;48.214;16.388;2023-10-08T13:49:02;5.10;;;1.60;;
19329;SDS011;9799;48.214;16.388;2023-10-08T13:52:25;3.13;;;1.70;;
19329;SDS011;9799;48.214;16.388;2023-10-08T13:55:48;4.60;;;2.00;;
19329;SDS011;9799;48.214;16.388;2023-10-08T13:59:13;1.60;;;1.37;;
19329;SDS011;9799;48.214;16.388;2023-10-08T14:02:36;3.00;;;1.60;;
19329;SDS011;9799;48.214;16.388;2023-10-08T14:05:58;6.33;;;1.97;;
19329;SDS011;9799;48.214;16.388;2023-10-08T14:09:24;5.50;;;1.97;;
19329;SDS011;9799;48.214;16.388;2023-10-08T14:12:56;4.50;;;2.43;;
19329;SDS011;9799;48.214;16.388;2023-10-08T14:16:23;2.73;;;1.67;;
19329;SDS011;9799;48.214;16.388;2023-10-08T14:19:48;3.63;;;2.33;;
19329;SDS011;9799;48.214;16.388;2023-10-08T14:23:19;3.37;;;1.83;;
19329;SDS011;9799;48.214;16.388;2023-10-08T14:26:44;2.23;;;1.77;;
19329;SDS011;9799;48.214;16.388;2023-10-08T14:30:11;2.07;;;1.80;;
19329;SDS011;9799;48.214;16.388;2023-10-08T14:33:42;3.60;;;1.90;;
19329;SDS011;9799;48.214;16.388;2023-10-08T14:37:25;2.97;;;2.60;;
19329;SDS011;9799;48.214;16.388;2023-10-08T14:41:03;3.20;;;2.00;;
19329;SDS011;9799;48.214;16.388;2023-10-08T14:44:43;4.63;;;2.30;;
19329;SDS011;9799;48.214;16.388;2023-10-08T14:48:06;2.77;;;2.13;;
19329;SDS011;9799;48.214;16.388;2023-10-08T14:51:32;4.47;;;2.43;;
19329;SDS011;9799;48.214;16.388;2023-10-08T14:54:54;4.57;;;2.10;;
19329;SDS011;9799;48.214;16.388;2023-10-08T14:58:16;3.20;;;1.90;;
19329;SDS011;9799;48.214;16.388;2023-10-08T15:01:38;4.30;;;2.57;;
19329;SDS011;9799;48.214;16.388;2023-10-08T15:05:00;2.10;;;1.60;;
19329;SDS011;9799;48.214;16.388;2023-10-08T15:08:24;2.67;;;2.10;;
19329;SDS011;9799;48.214;16.388;2023-10-08T15:11:47;3.43;;;2.10;;
19329;SDS011;9799;48.214;16.388;2023-10-08T15:15:10;1.87;;;1.63;;
19329;SDS011;9799;48.214;16.388;2023-10-08T15:18:35;3.83;;;1.97;;
19329;SDS011;9799;48.214;16.388;2023-10-08T15:22:01;2.63;;;1.97;;
19329;SDS011;9799;48.214;16.388;2023-10-08T15:25:25;2.80;;;2.07;;
19329;SDS011;9799;48.214;16.388;2023-10-08T15:28:47;4.27;;;2.53;;
19329;SDS011;9799;48.214;16.388;2023-10-08T15:32:09;4.57;;;2.30;;
19329;SDS011;9799;48.214;16.388;2023-10-08T15:35:32;3.27;;;2.33;;
19329;SDS011;9799;48.214;16.388;2023-10-08T15:38:55;2.37;;;2.10;;
19329;SDS011;9799;48.214;16.388;2023-10-08T15:42:18;5.03;;;2.30;;
19329;SDS011;9799;48.214;16.388;2023-10-08T15:45:41;2.87;;;2.20;;
19329;SDS011;9799;48.214;16.388;2023-10-08T15:49:04;2.47;;;1.70;;
19329;SDS011;9799;48.214;16.388;2023-10-08T15:52:29;2.63;;;1.80;;
19329;SDS011;9799;48.214;16.388;2023-10-08T15:55:51;3.60;;;2.20;;
19329;SDS011;9799;48.214;16.388;2023-10-08T15:59:17;2.83;;;1.87;;
19329;SDS011;9799;48.214;16.388;2023-10-08T16:02:41;3.30;;;2.30;;
19329;SDS011;9799;48.214;16.388;2023-10-08T16:06:05;6.33;;;2.40;;
19329;SDS011;9799;48.214;16.388;2023-10-08T16:09:28;2.50;;;1.80;;
19329;SDS011;9799;48.214;16.388;2023-10-08T16:12:51;3.27;;;2.10;;
19329;SDS011;9799;48.214;16.388;2023-10-08T16:16:15;4.03;;;2.30;;
19329;SDS011;9799;48.214;16.388;2023-10-08T16:19:38;3.43;;;2.10;;
19329;SDS011;9799;48.214;16.388;2023-10-08T16:23:01;3.83;;;2.37;;
19329;SDS011;9799;48.214;16.388;2023-10-08T16:26:24;2.97;;;2.20;;
19329;SDS011;9799;48.214;16.388;2023-10-08T16:29:47;1.83;;;1.57;;
19329;SDS011;9799;48.214;16.388;2023-10-08T16:33:11;3.40;;;1.90;;
19329;SDS011;9799;48.214;16.388;2023-10-08T16:36:34;2.70;;;1.80;;
19329;SDS011;9799;48.214;16.388;2023-10-08T16:39:58;2.53;;;1.93;;
19329;SDS011;9799;48.214;16.388;2023-10-08T16:43:21;3.10;;;1.80;;
19329;SDS011;9799;48.214;16.388;2023-10-08T16:46:44;2.33;;;1.67;;
19329;SDS011;9799;48.214;16.388;2023-10-08T16:50:08;2.33;;;1.97;;
19329;SDS011;9799;48.214;16.388;2023-10-08T16:53:31;2.60;;;2.07;;
19329;SDS011;9799;48.214;16.388;2023-10-08T16:56:53;2.90;;;1.93;;
19329;SDS011;9799;48.214;16.388;2023-10-08T17:00:16;3.00;;;2.60;;
19329;SDS011;9799;48.214;16.388;2023-10-08T17:03:40;2.37;;;1.80;;
19329;SDS011;9799;48.214;16.388;2023-10-08T17:07:04;2.63;;;2.03;;
19329;SDS011;9799;48.214;16.388;2023-10-08T17:10:26;2.97;;;2.40;;
19329;SDS011;9799;48.214;16.388;2023-10-08T17:13:50;2.60;;;2.00;;
19329;SDS011;9799;48.214;16.388;2023-10-08T17:17:12;3.13;;;2.03;;
19329;SDS011;9799;48.214;16.388;2023-10-08T17:20:34;3.37;;;2.27;;
19329;SDS011;9799;48.214;16.388;2023-10-08T17:23:59;3.03;;;1.90;;
19329;SDS011;9799;48.214;16.388;2023-10-08T17:27:26;9.53;;;2.00;;
19329;SDS011;9799;48.214;16.388;2023-10-08T17:30:48;4.23;;;2.70;;
19329;SDS011;9799;48.214;16.388;2023-10-08T17:34:11;6.17;;;2.50;;
19329;SDS011;9799;48.214;16.388;2023-10-08T17:37:35;3.83;;;2.30;;
19329;SDS011;9799;48.214;16.388;2023-10-08T17:41:00;2.47;;;1.70;;
19329;SDS011;9799;48.214;16.388;2023-10-08T17:44:22;3.87;;;2.53;;
19329;SDS011;9799;48.214;16.388;2023-10-08T17:47:47;2.77;;;2.30;;
19329;SDS011;9799;48.214;16.388;2023-10-08T17:51:12;4.90;;;2.47;;
19329;SDS011;9799;48.214;16.388;2023-10-08T17:54:37;4.43;;;2.60;;
19329;SDS011;9799;48.214;16.388;2023-10-08T17:58:04;3.07;;;2.17;;
19329;SDS011;9799;48.214;16.388;2023-10-08T18:01:27;4.23;;;2.33;;
19329;SDS011;9799;48.214;16.388;2023-10-08T18:04:50;2.73;;;1.93;;
19329;SDS011;9799;48.214;16.388;2023-10-08T18:08:14;4.10;;;2.50;;
19329;SDS011;9799;48.214;16.388;2023-10-08T18:11:39;4.00;;;2.37;;
19329;SDS011;9799;48.214;16.388;2023-10-08T18:15:06;3.40;;;2.33;;
19329;SDS011;9799;48.214;16.388;2023-10-08T18:18:31;4.03;;;2.40;;
19329;SDS011;9799;48.214;16.388;2023-10-08T18:21:56;2.63;;;2.20;;
19329;SDS011;9799;48.214;16.388;2023-10-08T18:25:19;2.70;;;2.10;;
19329;SDS011;9799;48.214;16.388;2023-10-08T18:28:42;4.90;;;2.17;;
19329;SDS011;9799;48.214;16.388;2023-10-08T18:32:07;3.47;;;2.13;;
19329;SDS011;9799;48.214;16.388;2023-10-08T18:35:32;4.70;;;1.97;;
19329;SDS011;9799;48.214;16.388;2023-10-08T18:38:53;3.40;;;2.00;;
19329;SDS011;9799;48.214;16.388;2023-10-08T18:42:17;4.40;;;2.30;;
19329;SDS011;9799;48.214;16.388;2023-10-08T18:45:43;3.33;;;2.47;;
19329;SDS011;9799;48.214;16.388;2023-10-08T18:49:08;3.53;;;2.00;;
19329;SDS011;9799;48.214;16.388;2023-10-08T18:52:30;4.03;;;2.30;;
19329;SDS011;9799;48.214;16.388;2023-10-08T18:56:01;3.47;;;2.20;;
19329;SDS011;9799;48.214;16.388;2023-10-08T18:59:27;3.90;;;2.40;;
19329;SDS011;9799;48.214;16.388;2023-10-08T19:02:52;3.10;;;2.37;;
19329;SDS011;9799;48.214;16.388;2023-10-08T19:06:19;3.07;;;1.97;;
19329;SDS011;9799;48.214;16.388;2023-10-08T19:09:42;2.60;;;1.97;;
19329;SDS011;9799;48.214;16.388;2023-10-08T19:13:05;3.80;;;2.30;;
19329;SDS011;9799;48.214;16.388;2023-10-08T19:16:29;2.80;;;2.33;;
19329;SDS011;9799;48.214;16.388;2023-10-08T19:19:51;10.27;;;8.53;;
19329;SDS011;9799;48.214;16.388;2023-10-08T19:23:16;4.97;;;2.90;;
19329;SDS011;9799;48.214;16.388;2023-10-08T19:26:39;3.80;;;2.43;;
19329;SDS011;9799;48.214;16.388;2023-10-08T19:30:02;7.53;;;5.43;;
19329;SDS011;9799;48.214;16.388;2023-10-08T19:33:26;2.47;;;2.27;;
19329;SDS011;9799;48.214;16.388;2023-10-08T19:36:50;2.93;;;1.80;;
19329;SDS011;9799;48.214;16.388;2023-10-08T19:40:14;2.33;;;2.00;;
19329;SDS011;9799;48.214;16.388;2023-10-08T19:43:38;2.73;;;2.30;;
19329;SDS011;9799;48.214;16.388;2023-10-08T19:47:01;2.37;;;1.97;;
19329;SDS011;9799;48.214;16.388;2023-10-08T19:50:24;5.20;;;2.07;;
19329;SDS011;9799;48.214;16.388;2023-10-08T19:53:47;3.73;;;2.00;;
19329;SDS011;9799;48.214;16.388;2023-10-08T19:57:13;3.97;;;2.60;;
19329;SDS011;9799;48.214;16.388;2023-10-08T20:00:36;3.50;;;2.33;;
19329;SDS011;9799;48.214;16.388;2023-10-08T20:03:59;2.87;;;2.00;;
19329;SDS011;9799;48.214;16.388;2023-10-08T20:07:22;3.40;;;2.27;;
19329;SDS011;9799;48.214;16.388;2023-10-08T20:10:45;3.60;;;2.00;;
19329;SDS011;9799;48.214;16.388;2023-10-08T20:14:09;2.63;;;2.37;;
19329;SDS011;9799;48.214;16.388;2023-10-08T20:17:31;4.40;;;2.40;;
19329;SDS011;9799;48.214;16.388;2023-10-08T20:20:54;3.27;;;2.37;;
19329;SDS011;9799;48.214;16.388;2023-10-08T20:24:17;2.97;;;2.20;;
19329;SDS011;9799;48.214;16.388;2023-10-08T20:27:39;2.50;;;1.87;;
19329;SDS011;9799;48.214;16.388;2023-10-08T20:31:04;10.63;;;8.10;;
19329;SDS011;9799;48.214;16.388;2023-10-08T20:34:26;6.90;;;4.70;;